Time;durP1;ratioP1;P1;durP2;ratioP2;P2;SDS_P1;SDS_P2;PMS_P1;PMS_P2;Temp;Humidity;BMP_temperature;BMP_pressure;BME280_temperature;BME280_humidity;BME280_pressure;Samples;Min_cycle;Max_cycle;Signal;HPM_P1;HPM_P2
2022/07/10 00:00:26;;;;;;;9.32;1.60;;;;;;;;;;5052199;28;20491;-75
2022/07/10 00:02:52;;;;;;;9.77;1.70;;;;;;;;;;5051818;28;20063;-75
2022/07/10 00:05:19;;;;;;;12.45;2.05;;;;;;;;;;5052863;28;20045;-75
2022/07/10 00:07:45;;;;;;;8.60;1.50;;;;;;;;;;5032858;28;20037;-75
2022/07/10 00:10:11;;;;;;;12.95;2.00;;;;;;;;;;5049006;28;20461;-74
2022/07/10 00:12:37;;;;;;;7.55;1.30;;;;;;;;;;5051381;28;20467;-75
2022/07/10 00:15:04;;;;;;;10.50;1.80;;;;;;;;;;5052298;28;20040;-74
2022/07/10 00:17:30;;;;;;;8.15;1.63;;;;;;;;;;5051566;28;20549;-75
2022/07/10 00:19:57;;;;;;;9.30;1.48;;;;;;;;;;5050030;28;20044;-75
2022/07/10 00:22:23;;;;;;;8.13;1.48;;;;;;;;;;5050481;28;20110;-75
2022/07/10 00:24:50;;;;;;;10.43;1.67;;;;;;;;;;5033752;28;20380;-74
2022/07/10 00:27:16;;;;;;;7.60;1.30;;;;;;;;;;5052026;28;20530;-74
2022/07/10 00:29:43;;;;;;;10.07;2.08;;;;;;;;;;5049278;28;20063;-76
2022/07/10 00:32:09;;;;;;;12.93;1.77;;;;;;;;;;5051484;28;20041;-76
2022/07/10 00:34:35;;;;;;;12.23;1.83;;;;;;;;;;5051666;28;20148;-76
2022/07/10 00:37:01;;;;;;;8.68;1.60;;;;;;;;;;5050987;28;20048;-76
2022/07/10 00:39:27;;;;;;;8.48;1.35;;;;;;;;;;5050004;28;20087;-76
2022/07/10 00:41:53;;;;;;;11.63;1.55;;;;;;;;;;5032995;28;20040;-76
2022/07/10 00:44:19;;;;;;;10.88;1.80;;;;;;;;;;5050589;28;20037;-76
2022/07/10 00:46:46;;;;;;;12.75;1.70;;;;;;;;;;5051475;28;20044;-76
2022/07/10 00:49:12;;;;;;;11.23;1.58;;;;;;;;;;5053386;28;20068;-76
2022/07/10 00:51:38;;;;;;;9.60;1.63;;;;;;;;;;5054237;28;20048;-75
2022/07/10 00:54:06;;;;;;;10.48;1.50;;;;;;;;;;5038155;28;20041;-75
2022/07/10 00:56:32;;;;;;;11.13;1.70;;;;;;;;;;5053736;28;20049;-76
2022/07/10 00:58:58;;;;;;;9.65;1.70;;;;;;;;;;5052943;28;20136;-75
2022/07/10 01:01:24;;;;;;;11.48;1.50;;;;;;;;;;5031448;28;20060;-75
2022/07/10 01:03:51;;;;;;;6.63;1.30;;;;;;;;;;5050595;28;20124;-75
2022/07/10 01:06:17;;;;;;;11.77;1.48;;;;;;;;;;5071846;28;20109;-75
2022/07/10 01:08:44;;;;;;;8.38;1.65;;;;;;;;;;5076056;28;20045;-75
2022/07/10 01:11:10;;;;;;;11.88;1.40;;;;;;;;;;5039647;28;20483;-75
2022/07/10 01:13:37;;;;;;;14.95;1.77;;;;;;;;;;5056783;28;20140;-75
2022/07/10 01:16:03;;;;;;;6.93;1.10;;;;;;;;;;5055978;28;20486;-75
2022/07/10 01:18:29;;;;;;;13.00;1.73;;;;;;;;;;5054719;28;20051;-75
2022/07/10 01:20:55;;;;;;;12.18;1.50;;;;;;;;;;5055589;28;20041;-75
2022/07/10 01:23:22;;;;;;;9.32;1.60;;;;;;;;;;5053616;28;20131;-75
2022/07/10 01:25:48;;;;;;;9.88;1.55;;;;;;;;;;5055217;28;20470;-76
2022/07/10 01:28:15;;;;;;;9.93;1.73;;;;;;;;;;5036738;28;20079;-76
2022/07/10 01:30:41;;;;;;;8.55;2.13;;;;;;;;;;5052650;28;20172;-76
2022/07/10 01:33:07;;;;;;;7.82;1.50;;;;;;;;;;5054309;28;20086;-76
2022/07/10 01:35:33;;;;;;;8.23;1.30;;;;;;;;;;5054013;28;20124;-75
2022/07/10 01:37:59;;;;;;;8.52;1.60;;;;;;;;;;5054707;28;20118;-75
2022/07/10 01:40:25;;;;;;;13.70;1.70;;;;;;;;;;5053033;28;20072;-75
2022/07/10 01:42:51;;;;;;;9.73;1.60;;;;;;;;;;5047774;28;20045;-75
2022/07/10 01:45:17;;;;;;;11.02;1.48;;;;;;;;;;5060078;28;20078;-74
2022/07/10 01:47:44;;;;;;;9.07;1.60;;;;;;;;;;5066234;28;20080;-75
2022/07/10 01:50:10;;;;;;;11.55;2.03;;;;;;;;;;5048442;28;20059;-75
2022/07/10 01:52:36;;;;;;;6.80;1.15;;;;;;;;;;5061571;28;20071;-74
2022/07/10 01:55:03;;;;;;;7.35;1.58;;;;;;;;;;5059332;28;20102;-75
2022/07/10 01:57:29;;;;;;;8.02;1.38;;;;;;;;;;5062697;28;20071;-75
2022/07/10 01:59:55;;;;;;;9.43;1.42;;;;;;;;;;5056599;28;20116;-75
2022/07/10 02:02:21;;;;;;;8.20;1.58;;;;;;;;;;5055904;28;20427;-75
2022/07/10 02:04:47;;;;;;;9.23;1.50;;;;;;;;;;5062682;28;20040;-76
2022/07/10 02:07:15;;;;;;;7.32;1.30;;;;;;;;;;5056920;28;20053;-76
2022/07/10 02:09:41;;;;;;;8.70;1.30;;;;;;;;;;5055640;28;20048;-75
2022/07/10 02:12:08;;;;;;;9.63;1.60;;;;;;;;;;5035959;28;20051;-74
2022/07/10 02:14:34;;;;;;;9.38;1.35;;;;;;;;;;5054719;28;20160;-75
2022/07/10 02:17:00;;;;;;;9.20;1.45;;;;;;;;;;5053710;28;20503;-75
2022/07/10 02:19:26;;;;;;;11.05;1.80;;;;;;;;;;5043978;28;20033;-74
2022/07/10 02:21:52;;;;;;;10.93;1.98;;;;;;;;;;5054204;28;20037;-75
2022/07/10 02:24:18;;;;;;;11.10;1.80;;;;;;;;;;5026712;28;20041;-75
2022/07/10 02:26:44;;;;;;;9.98;2.03;;;;;;;;;;5033240;28;20052;-75
2022/07/10 02:29:10;;;;;;;9.73;1.60;;;;;;;;;;5035207;28;20049;-75
2022/07/10 02:31:40;;;;;;;11.30;1.85;;;;;;;;;;5053302;28;20503;-75
2022/07/10 02:34:09;;;;;;;11.57;2.22;;;;;;;;;;5052789;28;20084;-75
2022/07/10 02:36:36;;;;;;;8.85;1.42;;;;;;;;;;5052131;28;20442;-75
2022/07/10 02:39:03;;;;;;;12.35;1.70;;;;;;;;;;5051230;28;20097;-75
2022/07/10 02:41:29;;;;;;;10.90;1.83;;;;;;;;;;5053294;28;20518;-75
2022/07/10 02:43:56;;;;;;;11.13;1.92;;;;;;;;;;5053080;28;20453;-75
2022/07/10 02:46:22;;;;;;;10.43;1.90;;;;;;;;;;5034511;28;20068;-75
2022/07/10 02:48:48;;;;;;;10.27;2.00;;;;;;;;;;5052262;28;20549;-75
2022/07/10 02:51:14;;;;;;;12.10;1.73;;;;;;;;;;5053481;28;20517;-75
2022/07/10 02:53:41;;;;;;;11.93;1.83;;;;;;;;;;5037514;28;20418;-75
2022/07/10 02:56:07;;;;;;;12.02;1.90;;;;;;;;;;5053919;28;20124;-75
2022/07/10 02:58:33;;;;;;;11.88;1.88;;;;;;;;;;5017076;28;20127;-75
2022/07/10 03:00:59;;;;;;;10.48;1.60;;;;;;;;;;5052009;28;20036;-75
2022/07/10 03:03:25;;;;;;;13.00;1.73;;;;;;;;;;5050720;28;20049;-74
2022/07/10 03:05:51;;;;;;;7.30;1.67;;;;;;;;;;5052497;28;20040;-75
2022/07/10 03:08:17;;;;;;;7.57;1.60;;;;;;;;;;5053246;28;20476;-75
2022/07/10 03:10:44;;;;;;;8.57;1.38;;;;;;;;;;5054331;28;20453;-75
2022/07/10 03:13:10;;;;;;;9.88;1.60;;;;;;;;;;5052442;28;20395;-75
2022/07/10 03:15:36;;;;;;;9.95;1.80;;;;;;;;;;5053516;28;20037;-75
2022/07/10 03:18:02;;;;;;;9.05;1.60;;;;;;;;;;5051817;28;20048;-75
2022/07/10 03:20:28;;;;;;;11.05;1.58;;;;;;;;;;5057299;28;20371;-75
2022/07/10 03:22:54;;;;;;;9.18;1.40;;;;;;;;;;5055159;28;20441;-75
2022/07/10 03:25:20;;;;;;;8.27;1.52;;;;;;;;;;5067018;28;20049;-75
2022/07/10 03:27:46;;;;;;;9.43;1.60;;;;;;;;;;5035032;28;20044;-75
2022/07/10 03:30:12;;;;;;;12.32;1.55;;;;;;;;;;5051770;28;20127;-74
2022/07/10 03:32:38;;;;;;;10.18;1.65;;;;;;;;;;5053045;28;20037;-74
2022/07/10 03:35:04;;;;;;;11.40;1.98;;;;;;;;;;5052857;28;20056;-74
2022/07/10 03:37:30;;;;;;;9.15;1.58;;;;;;;;;;5050518;28;20041;-74
2022/07/10 03:39:56;;;;;;;8.23;1.27;;;;;;;;;;5052600;28;20128;-75
2022/07/10 03:42:22;;;;;;;10.10;1.38;;;;;;;;;;5018252;28;20045;-75
2022/07/10 03:44:48;;;;;;;12.00;1.88;;;;;;;;;;5033683;28;20057;-74
2022/07/10 03:47:14;;;;;;;9.38;1.42;;;;;;;;;;5051043;28;20044;-74
2022/07/10 03:49:41;;;;;;;8.10;1.35;;;;;;;;;;5052770;28;20521;-75
2022/07/10 03:52:07;;;;;;;6.07;1.20;;;;;;;;;;5052722;28;20457;-75
2022/07/10 03:54:33;;;;;;;9.25;1.60;;;;;;;;;;5051651;28;20044;-75
2022/07/10 03:59:44;;;;;;;10.00;1.42;;;;;;;;;;5049938;28;20049;-75
2022/07/10 04:02:10;;;;;;;7.45;1.75;;;;;;;;;;5052668;28;20049;-75
2022/07/10 04:04:36;;;;;;;8.20;1.40;;;;;;;;;;5053411;28;20037;-75
2022/07/10 04:07:04;;;;;;;7.10;1.33;;;;;;;;;;5058158;28;20414;-74
2022/07/10 04:09:30;;;;;;;10.55;1.50;;;;;;;;;;5054928;28;20170;-75
2022/07/10 04:11:56;;;;;;;10.77;1.63;;;;;;;;;;5052777;28;20411;-75
2022/07/10 04:14:22;;;;;;;10.23;1.70;;;;;;;;;;5052730;28;20140;-75
2022/07/10 04:16:48;;;;;;;10.60;1.50;;;;;;;;;;5051668;28;20049;-75
2022/07/10 04:19:15;;;;;;;11.40;1.30;;;;;;;;;;5052257;28;20091;-75
2022/07/10 04:21:41;;;;;;;9.40;1.60;;;;;;;;;;5050631;28;20101;-75
2022/07/10 04:24:07;;;;;;;10.40;1.70;;;;;;;;;;5053001;28;20119;-75
2022/07/10 04:26:33;;;;;;;13.07;1.70;;;;;;;;;;5034060;28;20514;-75
2022/07/10 04:28:59;;;;;;;7.65;1.50;;;;;;;;;;5051866;28;20106;-75
2022/07/10 04:31:25;;;;;;;9.55;1.50;;;;;;;;;;5051847;28;20128;-75
2022/07/10 04:33:51;;;;;;;9.55;1.63;;;;;;;;;;5051389;28;20041;-75
2022/07/10 04:36:18;;;;;;;10.90;1.55;;;;;;;;;;5049711;28;20045;-75
2022/07/10 04:38:44;;;;;;;11.88;1.60;;;;;;;;;;5050952;28;20133;-75
2022/07/10 04:41:10;;;;;;;9.88;1.50;;;;;;;;;;5032967;28;20077;-75
2022/07/10 04:43:36;;;;;;;13.27;1.40;;;;;;;;;;5033729;28;20048;-75
2022/07/10 04:46:02;;;;;;;9.10;1.30;;;;;;;;;;5050975;28;20066;-75
2022/07/10 04:48:28;;;;;;;8.70;1.48;;;;;;;;;;5048679;28;20406;-75
2022/07/10 04:50:54;;;;;;;10.45;1.30;;;;;;;;;;5052255;28;20056;-74
2022/07/10 04:53:20;;;;;;;9.95;1.75;;;;;;;;;;5052303;28;20045;-75
2022/07/10 04:55:46;;;;;;;10.70;1.50;;;;;;;;;;5049633;28;20053;-75
2022/07/10 04:58:12;;;;;;;9.30;1.30;;;;;;;;;;5053189;28;20079;-75
2022/07/10 05:00:38;;;;;;;9.80;1.20;;;;;;;;;;5054828;28;20566;-75
2022/07/10 05:03:04;;;;;;;7.47;1.38;;;;;;;;;;5037903;28;20045;-74
2022/07/10 05:05:30;;;;;;;9.23;1.85;;;;;;;;;;5052037;28;20560;-74
2022/07/10 05:07:56;;;;;;;10.43;1.67;;;;;;;;;;5053055;28;20041;-74
2022/07/10 05:10:22;;;;;;;10.07;1.52;;;;;;;;;;5051801;28;20118;-75
2022/07/10 05:12:48;;;;;;;11.25;1.55;;;;;;;;;;5018170;28;20111;-74
2022/07/10 05:15:14;;;;;;;10.48;1.50;;;;;;;;;;5052534;28;20041;-75
2022/07/10 05:17:40;;;;;;;8.70;1.30;;;;;;;;;;5051202;28;20045;-75
2022/07/10 05:20:07;;;;;;;9.52;1.55;;;;;;;;;;5061461;28;20490;-74
2022/07/10 05:22:33;;;;;;;8.35;1.33;;;;;;;;;;5072565;28;20044;-74
2022/07/10 05:24:59;;;;;;;8.35;1.33;;;;;;;;;;5072405;28;20102;-75
2022/07/10 05:27:26;;;;;;;9.05;1.27;;;;;;;;;;5019766;28;20040;-74
2022/07/10 05:29:52;;;;;;;13.05;1.63;;;;;;;;;;5051379;28;20048;-74
2022/07/10 05:32:18;;;;;;;10.40;1.42;;;;;;;;;;5050871;28;20103;-75
2022/07/10 05:34:44;;;;;;;11.55;1.63;;;;;;;;;;5051503;28;20037;-75
2022/07/10 05:37:10;;;;;;;13.55;2.05;;;;;;;;;;5049173;28;20402;-75
2022/07/10 05:39:36;;;;;;;9.85;1.40;;;;;;;;;;5051452;28;20041;-73
2022/07/10 05:42:02;;;;;;;9.38;1.30;;;;;;;;;;5031518;28;20049;-74
2022/07/10 05:44:28;;;;;;;9.77;1.60;;;;;;;;;;5050357;28;20045;-74
2022/07/10 05:46:54;;;;;;;11.35;1.42;;;;;;;;;;5052065;28;20045;-74
2022/07/10 05:49:20;;;;;;;13.98;1.70;;;;;;;;;;5052068;28;20060;-74
2022/07/10 05:51:46;;;;;;;14.30;1.70;;;;;;;;;;5048781;28;20041;-74
2022/07/10 05:54:12;;;;;;;8.90;1.40;;;;;;;;;;5046016;28;20519;-74
2022/07/10 05:56:38;;;;;;;8.55;1.42;;;;;;;;;;5053669;28;20049;-73
2022/07/10 05:59:04;;;;;;;9.77;1.50;;;;;;;;;;5054371;28;20056;-73
2022/07/10 06:01:31;;;;;;;12.95;2.08;;;;;;;;;;5035845;28;20404;-74
2022/07/10 06:03:57;;;;;;;11.93;1.55;;;;;;;;;;5036429;28;20051;-75
2022/07/10 06:06:23;;;;;;;10.85;1.70;;;;;;;;;;5054570;28;20059;-74
2022/07/10 06:08:49;;;;;;;9.05;1.50;;;;;;;;;;5036702;28;20068;-74
2022/07/10 06:11:16;;;;;;;8.98;1.50;;;;;;;;;;5036331;28;20084;-74
2022/07/10 06:13:42;;;;;;;8.75;1.20;;;;;;;;;;5041951;28;20411;-74
2022/07/10 06:16:08;;;;;;;8.27;1.60;;;;;;;;;;5017715;28;20049;-74
2022/07/10 06:18:34;;;;;;;8.70;1.80;;;;;;;;;;5047849;28;20041;-73
2022/07/10 06:21:00;;;;;;;10.27;1.35;;;;;;;;;;5055174;28;20044;-74
2022/07/10 06:23:26;;;;;;;10.13;1.75;;;;;;;;;;5053916;28;20045;-73
2022/07/10 06:25:52;;;;;;;8.82;1.45;;;;;;;;;;5035849;28;20053;-73
2022/07/10 06:28:18;;;;;;;12.18;1.65;;;;;;;;;;5047176;28;20069;-73
2022/07/10 06:30:46;;;;;;;10.10;1.60;;;;;;;;;;5055061;28;20132;-74
2022/07/10 06:33:12;;;;;;;9.07;1.50;;;;;;;;;;5054912;28;20049;-74
2022/07/10 06:35:38;;;;;;;8.80;1.60;;;;;;;;;;5054798;28;20510;-73
2022/07/10 06:38:04;;;;;;;7.68;1.52;;;;;;;;;;5049531;28;20491;-73
2022/07/10 06:40:30;;;;;;;10.50;2.25;;;;;;;;;;5053690;28;20126;-73
2022/07/10 06:42:56;;;;;;;10.57;1.85;;;;;;;;;;5052082;28;20506;-72
2022/07/10 06:45:22;;;;;;;11.70;2.03;;;;;;;;;;5052904;28;20540;-72
2022/07/10 06:47:58;;;;;;;8.80;1.70;;;;;;;;;;5051171;28;20057;-71
2022/07/10 06:50:34;;;;;;;12.73;1.60;;;;;;;;;;5047886;28;20450;-72
2022/07/10 06:53:00;;;;;;;10.88;2.25;;;;;;;;;;5053218;28;20095;-72
2022/07/10 06:55:26;;;;;;;7.82;1.75;;;;;;;;;;5052410;28;20049;-71
2022/07/10 06:57:52;;;;;;;7.43;1.77;;;;;;;;;;5051404;28;20064;-71
2022/07/10 07:00:19;;;;;;;9.73;1.65;;;;;;;;;;5052783;28;20090;-71
2022/07/10 07:02:45;;;;;;;9.25;1.75;;;;;;;;;;5035001;28;20041;-71
2022/07/10 07:05:11;;;;;;;11.10;1.73;;;;;;;;;;5041625;28;20041;-73
2022/07/10 07:07:37;;;;;;;12.15;2.25;;;;;;;;;;5054319;28;20549;-73
2022/07/10 07:10:04;;;;;;;13.38;1.90;;;;;;;;;;5048260;28;20041;-73
2022/07/10 07:12:30;;;;;;;12.18;1.85;;;;;;;;;;5053183;28;20051;-73
2022/07/10 07:14:56;;;;;;;17.05;2.25;;;;;;;;;;5053488;28;20041;-73
2022/07/10 07:17:24;;;;;;;11.65;1.80;;;;;;;;;;5053712;28;20120;-74
2022/07/10 07:25:20;;;;;;;9.57;1.85;;;;;;;;;;5053533;28;20116;-72
2022/07/10 07:27:46;;;;;;;10.35;1.65;;;;;;;;;;5047319;28;20034;-74
2022/07/10 07:30:16;;;;;;;11.27;2.10;;;;;;;;;;5033941;28;20038;-73
2022/07/10 07:32:43;;;;;;;7.50;1.45;;;;;;;;;;5033792;28;20041;-73
2022/07/10 07:35:09;;;;;;;11.15;1.60;;;;;;;;;;5029139;28;20099;-73
2022/07/10 07:37:37;;;;;;;11.57;1.70;;;;;;;;;;5053601;28;20533;-74
2022/07/10 07:40:04;;;;;;;9.25;2.05;;;;;;;;;;5053087;28;20059;-73
2022/07/10 07:42:30;;;;;;;11.05;1.60;;;;;;;;;;5053689;28;20122;-73
2022/07/10 07:44:56;;;;;;;8.73;1.65;;;;;;;;;;5051756;28;20037;-73
2022/07/10 07:47:22;;;;;;;10.23;1.85;;;;;;;;;;5051864;28;20057;-73
2022/07/10 07:49:48;;;;;;;10.98;1.80;;;;;;;;;;5037165;28;20049;-73
2022/07/10 07:52:14;;;;;;;9.55;1.90;;;;;;;;;;5036445;28;20068;-73
2022/07/10 07:54:40;;;;;;;9.98;2.08;;;;;;;;;;5053707;28;20135;-74
2022/07/10 07:57:06;;;;;;;7.63;1.50;;;;;;;;;;5034060;28;20052;-74
2022/07/10 07:59:32;;;;;;;11.98;2.10;;;;;;;;;;5053519;28;20045;-74
2022/07/10 08:01:58;;;;;;;9.38;1.40;;;;;;;;;;5053329;28;20052;-74
2022/07/10 08:04:24;;;;;;;10.32;1.80;;;;;;;;;;5053476;28;20121;-74
2022/07/10 08:06:52;;;;;;;10.07;2.03;;;;;;;;;;5057144;28;20059;-74
2022/07/10 08:09:21;;;;;;;9.30;1.60;;;;;;;;;;5055716;28;20045;-74
2022/07/10 08:11:47;;;;;;;9.13;1.65;;;;;;;;;;5039072;28;20376;-74
2022/07/10 08:14:14;;;;;;;6.97;1.30;;;;;;;;;;5054422;28;20045;-73
2022/07/10 08:16:40;;;;;;;7.50;1.30;;;;;;;;;;5037822;28;20124;-73
2022/07/10 08:19:06;;;;;;;8.80;1.27;;;;;;;;;;5052693;28;20044;-73
2022/07/10 08:21:33;;;;;;;6.50;1.27;;;;;;;;;;5035118;28;20048;-72
2022/07/10 08:24:00;;;;;;;7.40;1.20;;;;;;;;;;5052982;28;20052;-72
2022/07/10 08:26:26;;;;;;;7.53;1.30;;;;;;;;;;5048128;28;20170;-73
2022/07/10 08:28:52;;;;;;;7.50;1.25;;;;;;;;;;5050974;28;20120;-73
2022/07/10 08:31:18;;;;;;;8.05;1.15;;;;;;;;;;5048285;28;20048;-73
2022/07/10 08:33:44;;;;;;;7.93;1.50;;;;;;;;;;5045051;28;20049;-73
2022/07/10 08:36:10;;;;;;;8.70;1.25;;;;;;;;;;5044785;28;20040;-73
2022/07/10 08:38:36;;;;;;;6.93;1.20;;;;;;;;;;5039202;28;20034;-74
2022/07/10 08:41:05;;;;;;;7.20;1.10;;;;;;;;;;5022111;28;20128;-74
2022/07/10 08:43:31;;;;;;;7.88;1.20;;;;;;;;;;5038956;28;20038;-74
2022/07/10 08:45:58;;;;;;;8.52;1.27;;;;;;;;;;5041050;28;20040;-73
2022/07/10 08:48:24;;;;;;;5.70;1.00;;;;;;;;;;5049853;28;20084;-74
2022/07/10 08:50:54;;;;;;;6.70;1.00;;;;;;;;;;5049582;28;20518;-73
2022/07/10 08:53:23;;;;;;;4.85;1.00;;;;;;;;;;5052632;28;20049;-73
2022/07/10 08:55:49;;;;;;;4.82;1.00;;;;;;;;;;5051209;28;20037;-74
2022/07/10 08:58:15;;;;;;;4.85;0.90;;;;;;;;;;5049162;28;20407;-74
2022/07/10 09:00:41;;;;;;;5.50;0.90;;;;;;;;;;5050650;28;20049;-72
2022/07/10 09:03:08;;;;;;;5.90;0.95;;;;;;;;;;5052723;28;20144;-72
2022/07/10 09:05:35;;;;;;;5.15;0.77;;;;;;;;;;5049468;28;20047;-73
2022/07/10 09:08:01;;;;;;;4.40;0.80;;;;;;;;;;5039040;28;20049;-72
2022/07/10 09:10:28;;;;;;;4.32;0.90;;;;;;;;;;5049794;28;20041;-72
2022/07/10 09:13:01;;;;;;;3.78;0.80;;;;;;;;;;5046984;28;20047;-74
2022/07/10 09:15:32;;;;;;;5.57;0.80;;;;;;;;;;5052112;28;20048;-73
2022/07/10 09:18:07;;;;;;;3.88;0.75;;;;;;;;;;5052479;28;20041;-73
2022/07/10 09:20:34;;;;;;;5.28;0.80;;;;;;;;;;5052488;28;20043;-72
2022/07/10 09:23:18;;;;;;;5.72;1.00;;;;;;;;;;5051272;28;20398;-73
2022/07/10 09:25:48;;;;;;;4.75;0.80;;;;;;;;;;5034273;28;20076;-73
2022/07/10 09:28:16;;;;;;;6.10;0.75;;;;;;;;;;5033475;28;20049;-73
2022/07/10 09:30:42;;;;;;;3.67;0.60;;;;;;;;;;5041310;28;20037;-73
2022/07/10 09:33:26;;;;;;;3.35;0.63;;;;;;;;;;5046641;28;20051;-73
2022/07/10 09:36:09;;;;;;;5.15;0.70;;;;;;;;;;5048335;28;20037;-73
2022/07/10 09:38:44;;;;;;;8.15;1.00;;;;;;;;;;5054125;28;20529;-73
2022/07/10 09:41:21;;;;;;;4.03;0.80;;;;;;;;;;5055927;28;20045;-73
2022/07/10 09:43:48;;;;;;;5.93;0.85;;;;;;;;;;5055486;28;20037;-74
2022/07/10 09:46:17;;;;;;;3.90;0.60;;;;;;;;;;5055223;28;20047;-72
2022/07/10 09:48:43;;;;;;;4.53;0.80;;;;;;;;;;5055630;28;20060;-74
2022/07/10 09:51:10;;;;;;;4.38;0.88;;;;;;;;;;5055843;28;20052;-73
2022/07/10 09:53:40;;;;;;;6.47;0.77;;;;;;;;;;5055905;28;20064;-72
2022/07/10 09:56:08;;;;;;;3.95;0.52;;;;;;;;;;5055066;28;20552;-73
2022/07/10 09:58:37;;;;;;;3.65;0.70;;;;;;;;;;5055649;28;20051;-73
2022/07/10 10:01:05;;;;;;;3.72;0.90;;;;;;;;;;5055669;28;20159;-73
2022/07/10 10:03:35;;;;;;;5.35;0.80;;;;;;;;;;5055657;28;20399;-74
2022/07/10 10:06:04;;;;;;;7.05;1.00;;;;;;;;;;5053907;28;20503;-73
2022/07/10 10:08:44;;;;;;;3.45;0.80;;;;;;;;;;5055453;28;20095;-73
2022/07/10 10:11:14;;;;;;;4.45;0.75;;;;;;;;;;5053681;28;20544;-73
2022/07/10 10:13:40;;;;;;;7.25;1.02;;;;;;;;;;5053175;28;20048;-73
2022/07/10 10:16:08;;;;;;;4.13;0.75;;;;;;;;;;5037613;28;20462;-73
2022/07/10 10:18:34;;;;;;;4.57;0.90;;;;;;;;;;5055218;28;20076;-73
2022/07/10 10:21:01;;;;;;;7.13;1.08;;;;;;;;;;5054540;28;20053;-73
2022/07/10 10:23:29;;;;;;;3.75;0.70;;;;;;;;;;5052038;28;20407;-72
2022/07/10 10:25:56;;;;;;;4.88;0.95;;;;;;;;;;5037963;28;20045;-72
2022/07/10 10:28:23;;;;;;;6.13;1.05;;;;;;;;;;5036157;28;20386;-72
2022/07/10 10:30:50;;;;;;;4.88;1.20;;;;;;;;;;5055173;28;20045;-72
2022/07/10 10:33:32;;;;;;;4.38;0.90;;;;;;;;;;5050215;28;20052;-72
2022/07/10 10:35:57;;;;;;;;;;;;;;;;;;5055170;28;20084;-73
2022/07/10 10:38:23;;;;;;;4.25;0.70;;;;;;;;;;5054745;28;20014;-73
2022/07/10 10:40:50;;;;;;;3.45;0.70;;;;;;;;;;5054694;28;20522;-72
2022/07/10 10:43:25;;;;;;;2.47;0.70;;;;;;;;;;5053972;28;20041;-72
2022/07/10 10:45:51;;;;;;;2.70;0.73;;;;;;;;;;5040448;28;20041;-72
2022/07/10 10:48:20;;;;;;;1.92;0.60;;;;;;;;;;5053123;28;20049;-72
2022/07/10 10:50:49;;;;;;;3.97;0.90;;;;;;;;;;5054475;28;20049;-72
2022/07/10 10:53:15;;;;;;;3.20;0.82;;;;;;;;;;5054217;28;20050;-72
2022/07/10 10:56:01;;;;;;;3.42;0.82;;;;;;;;;;5054505;28;20056;-71
2022/07/10 10:58:28;;;;;;;2.25;0.75;;;;;;;;;;5054422;28;20045;-73
2022/07/10 11:01:24;;;;;;;3.55;0.80;;;;;;;;;;5052895;28;20502;-73
2022/07/10 11:04:11;;;;;;;2.38;0.60;;;;;;;;;;5052003;28;20056;-73
2022/07/10 11:06:40;;;;;;;2.08;0.60;;;;;;;;;;5038238;28;20057;-74
2022/07/10 11:09:25;;;;;;;3.22;0.70;;;;;;;;;;5050789;28;20056;-73
2022/07/10 11:12:04;;;;;;;4.40;0.98;;;;;;;;;;5051351;28;20045;-73
2022/07/10 11:14:31;;;;;;;2.80;0.63;;;;;;;;;;5015693;28;20056;-74
2022/07/10 11:16:57;;;;;;;3.45;0.82;;;;;;;;;;5026974;28;20116;-73
2022/07/10 11:19:27;;;;;;;3.67;0.90;;;;;;;;;;5052434;28;20053;-72
2022/07/10 11:21:59;;;;;;;4.93;1.02;;;;;;;;;;5053904;28;20041;-73
2022/07/10 11:24:39;;;;;;;5.90;1.00;;;;;;;;;;5053377;28;20043;-72
2022/07/10 11:27:24;;;;;;;4.65;1.30;;;;;;;;;;5034251;28;20040;-73
2022/07/10 11:29:56;;;;;;;4.30;1.20;;;;;;;;;;5052793;28;20045;-73
2022/07/10 11:32:23;;;;;;;4.07;0.98;;;;;;;;;;5049423;28;20498;-73
2022/07/10 11:34:49;;;;;;;5.28;0.95;;;;;;;;;;5069577;28;20483;-74
2022/07/10 11:37:16;;;;;;;4.47;0.82;;;;;;;;;;5056061;28;20470;-73
2022/07/10 11:39:42;;;;;;;2.58;0.80;;;;;;;;;;5053042;28;20045;-74
2022/07/10 11:42:08;;;;;;;4.95;1.00;;;;;;;;;;5051505;28;20462;-73
2022/07/10 11:44:34;;;;;;;3.50;1.00;;;;;;;;;;5051692;28;20033;-74
2022/07/10 11:47:02;;;;;;;3.83;1.20;;;;;;;;;;5048271;28;20041;-74
2022/07/10 11:49:28;;;;;;;4.03;1.00;;;;;;;;;;5053322;28;20065;-74
2022/07/10 11:51:56;;;;;;;4.95;1.40;;;;;;;;;;5052437;28;20048;-73
2022/07/10 11:54:22;;;;;;;4.70;1.30;;;;;;;;;;5049212;28;20473;-74
2022/07/10 11:56:52;;;;;;;4.65;1.23;;;;;;;;;;5034796;28;20120;-73
2022/07/10 11:59:19;;;;;;;5.32;1.50;;;;;;;;;;5052700;28;20045;-74
2022/07/10 12:01:48;;;;;;;5.78;1.38;;;;;;;;;;5052681;28;20487;-73
2022/07/10 12:04:16;;;;;;;7.00;1.85;;;;;;;;;;5051574;28;20041;-74
2022/07/10 12:06:46;;;;;;;8.30;1.55;;;;;;;;;;5051732;28;20052;-74
2022/07/10 12:09:13;;;;;;;5.35;1.50;;;;;;;;;;5053187;28;20056;-74
2022/07/10 12:11:40;;;;;;;5.72;1.38;;;;;;;;;;5053219;28;20045;-74
2022/07/10 12:14:14;;;;;;;5.10;1.90;;;;;;;;;;5034765;28;20199;-74
2022/07/10 12:16:42;;;;;;;6.25;1.75;;;;;;;;;;5052226;28;20049;-74
2022/07/10 12:19:08;;;;;;;5.68;1.42;;;;;;;;;;5052613;28;20041;-74
2022/07/10 12:21:35;;;;;;;8.63;1.75;;;;;;;;;;5035284;28;20056;-74
2022/07/10 12:24:02;;;;;;;6.93;1.65;;;;;;;;;;5033886;28;20041;-74
2022/07/10 12:26:32;;;;;;;5.82;1.33;;;;;;;;;;5052036;28;20414;-74
2022/07/10 12:28:58;;;;;;;7.18;1.38;;;;;;;;;;5050624;28;20037;-74
2022/07/10 12:31:29;;;;;;;6.97;1.65;;;;;;;;;;5052834;28;20521;-74
2022/07/10 12:33:57;;;;;;;8.57;1.77;;;;;;;;;;5043407;28;20437;-74
2022/07/10 12:36:24;;;;;;;6.28;1.33;;;;;;;;;;5045470;28;20303;-74
2022/07/10 12:38:59;;;;;;;5.63;1.65;;;;;;;;;;5045321;28;20399;-74
2022/07/10 12:41:25;;;;;;;5.30;1.88;;;;;;;;;;5048031;28;20094;-74
2022/07/10 12:43:52;;;;;;;9.82;2.05;;;;;;;;;;5045583;28;20049;-74
2022/07/10 12:46:24;;;;;;;5.10;1.58;;;;;;;;;;5042096;28;20407;-74
2022/07/10 12:49:03;;;;;;;7.20;1.60;;;;;;;;;;5048486;28;20063;-72
2022/07/10 12:51:31;;;;;;;4.53;1.40;;;;;;;;;;5032697;28;20045;-72
2022/07/10 12:53:57;;;;;;;6.20;1.50;;;;;;;;;;5051935;28;20048;-73
2022/07/10 12:56:30;;;;;;;7.10;1.48;;;;;;;;;;5051741;28;20048;-74
2022/07/10 12:58:57;;;;;;;5.88;1.60;;;;;;;;;;5052317;28;20041;-75
2022/07/10 13:01:23;;;;;;;5.50;1.20;;;;;;;;;;5052637;28;20045;-75
2022/07/10 13:03:49;;;;;;;4.75;1.15;;;;;;;;;;5056066;28;20052;-75
2022/07/10 13:06:28;;;;;;;4.20;1.00;;;;;;;;;;5055424;28;20132;-75
2022/07/10 13:08:55;;;;;;;4.30;1.20;;;;;;;;;;5038641;28;20048;-75
2022/07/10 13:11:21;;;;;;;3.45;1.10;;;;;;;;;;5056800;28;20076;-75
2022/07/10 13:13:47;;;;;;;4.85;1.17;;;;;;;;;;5054740;28;20175;-74
2022/07/10 13:16:13;;;;;;;5.43;1.27;;;;;;;;;;5052743;28;20048;-75
2022/07/10 13:18:42;;;;;;;4.93;1.25;;;;;;;;;;5036704;28;20510;-75
2022/07/10 13:21:08;;;;;;;6.85;1.40;;;;;;;;;;5056481;28;20044;-75
2022/07/10 13:23:34;;;;;;;6.57;1.48;;;;;;;;;;5051970;28;20129;-75
2022/07/10 13:26:01;;;;;;;6.35;1.48;;;;;;;;;;5050539;28;20139;-75
2022/07/10 13:28:27;;;;;;;4.82;1.15;;;;;;;;;;5051884;28;20048;-75
2022/07/10 13:30:53;;;;;;;5.88;1.40;;;;;;;;;;5036266;28;20128;-75
2022/07/10 13:33:19;;;;;;;7.75;1.67;;;;;;;;;;5048271;28;20415;-75
2022/07/10 13:35:46;;;;;;;6.07;1.55;;;;;;;;;;5052996;28;20052;-72
2022/07/10 13:38:12;;;;;;;6.13;1.65;;;;;;;;;;5055182;28;20044;-75
2022/07/10 13:40:38;;;;;;;6.32;1.58;;;;;;;;;;5056055;28;20047;-74
2022/07/10 13:43:06;;;;;;;5.68;1.52;;;;;;;;;;5053186;28;20056;-74
2022/07/10 13:45:42;;;;;;;6.28;1.30;;;;;;;;;;5055774;28;20041;-74
2022/07/10 13:48:09;;;;;;;10.02;1.40;;;;;;;;;;5053589;28;20045;-74
2022/07/10 13:50:35;;;;;;;7.35;1.70;;;;;;;;;;5054820;28;20057;-75
2022/07/10 13:53:01;;;;;;;8.27;1.73;;;;;;;;;;5048594;28;20048;-75
2022/07/10 13:55:27;;;;;;;6.25;1.40;;;;;;;;;;5055856;28;20044;-74
2022/07/10 13:57:53;;;;;;;5.43;1.50;;;;;;;;;;5055618;28;20041;-74
2022/07/10 14:00:19;;;;;;;5.53;1.50;;;;;;;;;;5055628;28;20051;-74
2022/07/10 14:02:45;;;;;;;5.07;1.30;;;;;;;;;;5036809;28;20067;-74
2022/07/10 14:05:12;;;;;;;5.97;1.58;;;;;;;;;;5055430;28;20040;-74
2022/07/10 14:07:38;;;;;;;5.55;1.50;;;;;;;;;;5055387;28;20091;-74
2022/07/10 14:10:04;;;;;;;8.68;1.75;;;;;;;;;;5055527;28;20053;-74
2022/07/10 14:12:31;;;;;;;6.40;1.70;;;;;;;;;;5054642;28;20479;-74
2022/07/10 14:14:58;;;;;;;6.88;1.40;;;;;;;;;;5054848;28;20052;-73
2022/07/10 14:17:24;;;;;;;7.05;1.40;;;;;;;;;;5053048;28;20041;-74
2022/07/10 14:19:50;;;;;;;6.38;1.30;;;;;;;;;;5053502;28;20047;-74
2022/07/10 14:22:17;;;;;;;5.47;1.33;;;;;;;;;;5054413;28;20041;-74
2022/07/10 14:24:43;;;;;;;5.97;1.60;;;;;;;;;;5036367;28;20052;-74
2022/07/10 14:27:10;;;;;;;7.53;1.65;;;;;;;;;;5052265;28;20045;-74
2022/07/10 14:29:36;;;;;;;5.65;1.40;;;;;;;;;;5053826;28;20041;-74
2022/07/10 14:32:02;;;;;;;5.15;1.23;;;;;;;;;;5035896;28;20060;-74
2022/07/10 14:34:29;;;;;;;5.53;1.30;;;;;;;;;;5054056;28;20056;-74
2022/07/10 14:36:55;;;;;;;6.18;1.35;;;;;;;;;;5037199;28;20048;-74
2022/07/10 14:39:21;;;;;;;5.15;1.15;;;;;;;;;;5054975;28;20041;-74
2022/07/10 14:41:48;;;;;;;4.80;1.30;;;;;;;;;;5053520;28;20051;-74
2022/07/10 14:44:14;;;;;;;5.57;1.35;;;;;;;;;;5053737;28;20049;-74
2022/07/10 14:46:40;;;;;;;6.13;1.30;;;;;;;;;;5054762;28;20094;-74
2022/07/10 14:49:06;;;;;;;7.95;1.50;;;;;;;;;;5054539;28;20127;-73